MHLC/LCE METAR and TAF weather

Enter ICAO airport designator
Station Type Date Time Source
MHLC METAR 2019/02/16 18:00 UTC NOAA

MHLC 161800Z 01008KT 9999 FEW030 29/21 Q1010 A2983 NOSIG


Station Type Date Time Source
MHLC Decoded METAR 2019/02/16 18:00 UTC NOAA

La Ceiba Airport , Honduras (MHLC) 15-44N 086-52W 26M
Feb 16, 2019 - 01:00 PM EST / 2019.02.16 1800 UTC
Wind: from the N (010 degrees) at 9 MPH (8 KT):0
Visibility: greater than 7 mile(s):0
Sky conditions: mostly clear
Temperature: 84 F (29 C)
Dew Point: 69 F (21 C)
Relative Humidity: 62%
Pressure (altimeter): 29.83 in. Hg (1010 hPa)
ob: MHLC 161800Z 01008KT 9999 FEW030 29/21 Q1010 A2983 NOSIG
cycle: 18

Station Type Date Time Source
MHLC TAF 2019/02/16 18:59 UTC NOAA

TAF MHLC 161600Z 1618/1718 04010KT 9999 FEW028 TX31/1620Z TN21/1712Z
BECMG 1702/1704 18005KT


Example: see airport list